Time;durP1;ratioP1;P1;durP2;ratioP2;P2;SDS_P1;SDS_P2;PMS_P1;PMS_P2;Temp;Humidity;BMP_temperature;BMP_pressure;BME280_temperature;BME280_humidity;BME280_pressure;Samples;Min_cycle;Max_cycle;Signal;HPM_P1;HPM_P2
2024/02/18 00:00:12;;;;;;;7.50;6.80;;;9.30;99.90;;;;;;5052554;28;20470;-62
2024/02/18 00:02:39;;;;;;;9.90;8.90;;;9.20;99.90;;;;;;5039536;28;20482;-62
2024/02/18 00:05:07;;;;;;;8.17;6.50;;;9.30;99.90;;;;;;5040737;28;20825;-63
2024/02/18 00:07:34;;;;;;;9.20;7.57;;;9.30;99.90;;;;;;5046141;28;20488;-62
2024/02/18 00:10:02;;;;;;;8.53;7.53;;;9.20;99.90;;;;;;5056441;28;20475;-62
2024/02/18 00:12:29;;;;;;;9.30;7.43;;;9.20;99.90;;;;;;5049665;28;20444;-62
2024/02/18 00:14:56;;;;;;;8.10;7.30;;;9.30;99.90;;;;;;5046229;28;21131;-62
2024/02/18 00:17:23;;;;;;;12.10;7.50;;;9.30;99.90;;;;;;5044919;28;20449;-62
2024/02/18 00:19:49;;;;;;;6.87;6.27;;;9.30;99.90;;;;;;5040993;28;21108;-62
2024/02/18 00:22:16;;;;;;;8.23;7.10;;;9.30;99.90;;;;;;5048942;28;20449;-62
2024/02/18 00:24:43;;;;;;;8.63;7.83;;;9.20;99.90;;;;;;5041896;28;20958;-62
2024/02/18 00:27:11;;;;;;;9.88;7.55;;;9.20;99.90;;;;;;5049826;28;20485;-62
2024/02/18 00:29:38;;;;;;;10.40;7.70;;;9.20;99.90;;;;;;5044208;28;20214;-62
2024/02/18 00:32:06;;;;;;;8.93;8.00;;;9.20;99.90;;;;;;5042131;28;20449;-62
2024/02/18 00:34:32;;;;;;;7.23;6.53;;;9.20;99.90;;;;;;5045938;28;20538;-62
2024/02/18 00:36:59;;;;;;;8.80;7.60;;;9.20;99.90;;;;;;5041409;28;20436;-62
2024/02/18 00:39:26;;;;;;;7.70;7.00;;;9.20;99.90;;;;;;5050916;28;21219;-62
2024/02/18 00:41:53;;;;;;;8.87;7.10;;;9.20;99.90;;;;;;5043287;28;20454;-62
2024/02/18 00:44:23;;;;;;;8.63;7.13;;;9.20;99.90;;;;;;5038543;28;20450;-62
2024/02/18 00:46:50;;;;;;;8.50;7.70;;;9.10;99.90;;;;;;5046985;28;20487;-62
2024/02/18 00:49:17;;;;;;;7.57;7.07;;;9.20;99.90;;;;;;5038545;28;20541;-62
2024/02/18 00:51:44;;;;;;;9.83;6.67;;;9.10;99.90;;;;;;5042299;28;20474;-62
2024/02/18 00:54:11;;;;;;;9.87;8.93;;;9.10;99.90;;;;;;5042676;28;20449;-62
2024/02/18 00:56:38;;;;;;;7.60;6.90;;;9.10;99.90;;;;;;5055843;28;20441;-62
2024/02/18 00:59:04;;;;;;;7.60;6.60;;;9.10;99.90;;;;;;5046534;28;20964;-62
2024/02/18 01:01:33;;;;;;;9.73;8.43;;;9.10;99.90;;;;;;5049878;28;20482;-62
2024/02/18 01:04:00;;;;;;;6.63;5.97;;;9.10;99.90;;;;;;5044189;28;20449;-62
2024/02/18 01:06:27;;;;;;;8.37;7.57;;;9.00;99.90;;;;;;5042259;28;21246;-62
2024/02/18 01:08:54;;;;;;;7.10;6.40;;;9.00;99.90;;;;;;5043306;28;20449;-62
2024/02/18 01:11:20;;;;;;;7.27;6.60;;;9.00;99.90;;;;;;5046141;28;20467;-62
2024/02/18 01:13:47;;;;;;;7.93;6.77;;;9.00;99.90;;;;;;5051275;28;20488;-62
2024/02/18 01:16:14;;;;;;;7.38;6.68;;;9.10;99.90;;;;;;5058018;28;20527;-62
2024/02/18 01:18:43;;;;;;;8.37;6.50;;;9.00;99.90;;;;;;5050794;28;20224;-62
2024/02/18 01:21:10;;;;;;;8.18;6.57;;;9.00;99.90;;;;;;5055966;28;20551;-62
2024/02/18 01:23:37;;;;;;;7.50;6.80;;;9.00;99.90;;;;;;5041698;28;20214;-62
2024/02/18 01:26:05;;;;;;;7.97;6.93;;;9.00;99.90;;;;;;5039881;28;20461;-62
2024/02/18 01:28:32;;;;;;;7.28;6.60;;;9.00;99.90;;;;;;5043099;28;21045;-62
2024/02/18 01:30:58;;;;;;;8.00;7.30;;;9.00;99.90;;;;;;5052346;28;20238;-62
2024/02/18 01:33:25;;;;;;;7.77;7.07;;;8.90;99.90;;;;;;5054786;28;20453;-62
2024/02/18 01:35:54;;;;;;;9.00;7.50;;;8.90;99.90;;;;;;5048964;28;20507;-62
2024/02/18 01:38:20;;;;;;;8.47;7.77;;;8.90;99.90;;;;;;5056666;28;20474;-62
2024/02/18 01:40:47;;;;;;;7.60;6.95;;;8.90;99.90;;;;;;5052536;28;20483;-62
2024/02/18 01:43:17;;;;;;;10.95;8.95;;;8.90;99.90;;;;;;5057422;28;21457;-62
2024/02/18 01:45:45;;;;;;;8.50;7.70;;;8.90;99.90;;;;;;5043768;28;20214;-62
2024/02/18 01:48:13;;;;;;;8.50;7.40;;;8.90;99.90;;;;;;5044019;28;20490;-62
2024/02/18 01:50:40;;;;;;;10.00;8.85;;;8.90;99.90;;;;;;5042179;28;20548;-62
2024/02/18 01:53:09;;;;;;;9.53;8.70;;;8.90;99.90;;;;;;5035203;28;20212;-62
2024/02/18 01:55:36;;;;;;;9.30;8.50;;;8.90;99.90;;;;;;5049572;28;20526;-62
2024/02/18 01:58:04;;;;;;;7.70;6.95;;;8.90;99.90;;;;;;5044009;28;20724;-62
2024/02/18 02:00:31;;;;;;;9.77;8.00;;;8.90;99.90;;;;;;5048700;28;20229;-62
2024/02/18 02:02:58;;;;;;;7.77;7.07;;;8.80;99.90;;;;;;5052955;28;20500;-62
2024/02/18 02:05:25;;;;;;;8.73;7.82;;;8.80;99.90;;;;;;5069413;28;20458;-62
2024/02/18 02:07:53;;;;;;;8.80;8.00;;;8.80;99.90;;;;;;5069012;28;20229;-62
2024/02/18 02:10:22;;;;;;;8.90;8.00;;;8.80;99.90;;;;;;5068940;28;21130;-62
2024/02/18 02:12:49;;;;;;;9.68;7.53;;;8.80;99.90;;;;;;5067624;28;20241;-62
2024/02/18 02:15:16;;;;;;;10.73;8.53;;;8.80;99.90;;;;;;5068904;28;20310;-62
2024/02/18 02:17:43;;;;;;;8.95;7.90;;;8.70;99.90;;;;;;5059696;28;20536;-62
2024/02/18 02:20:10;;;;;;;7.80;6.83;;;8.70;99.90;;;;;;5037028;28;20788;-62
2024/02/18 02:22:37;;;;;;;9.75;8.75;;;8.70;99.90;;;;;;5066185;28;20523;-62
2024/02/18 02:25:05;;;;;;;8.00;7.20;;;8.70;99.90;;;;;;5054649;28;20307;-62
2024/02/18 02:27:37;;;;;;;8.95;6.35;;;8.70;99.90;;;;;;5040670;28;20221;-62
2024/02/18 02:30:06;;;;;;;8.15;7.45;;;8.60;99.90;;;;;;5066599;28;20313;-62
2024/02/18 02:32:34;;;;;;;8.70;7.10;;;8.60;99.90;;;;;;5067187;28;20208;-62
2024/02/18 02:35:02;;;;;;;9.40;8.30;;;8.60;99.90;;;;;;5068066;28;20305;-62
2024/02/18 02:37:29;;;;;;;9.55;6.93;;;8.60;99.90;;;;;;5068532;28;20206;-62
2024/02/18 02:39:56;;;;;;;9.30;8.30;;;8.60;99.90;;;;;;5043835;28;20329;-62
2024/02/18 02:42:23;;;;;;;8.68;7.88;;;8.60;99.90;;;;;;5050068;28;20205;-62
2024/02/18 02:44:49;;;;;;;9.02;8.30;;;8.50;99.90;;;;;;5068186;28;20305;-62
2024/02/18 02:47:18;;;;;;;9.47;8.50;;;8.50;99.90;;;;;;5051085;28;20237;-62
2024/02/18 02:49:45;;;;;;;8.60;7.78;;;8.50;99.90;;;;;;5040765;28;20476;-62
2024/02/18 02:52:12;;;;;;;10.57;9.63;;;8.50;99.90;;;;;;5051497;28;20211;-62
2024/02/18 02:54:39;;;;;;;10.30;9.25;;;8.50;99.90;;;;;;5040029;28;20217;-62
2024/02/18 02:57:06;;;;;;;10.18;9.27;;;8.50;99.90;;;;;;5059556;28;20210;-62
2024/02/18 02:59:32;;;;;;;10.20;8.40;;;8.50;99.90;;;;;;5055449;28;20234;-62
2024/02/18 03:01:59;;;;;;;9.63;8.80;;;8.50;99.90;;;;;;5067343;28;20535;-62
2024/02/18 03:04:28;;;;;;;8.70;7.80;;;8.50;99.90;;;;;;5051165;28;20516;-62
2024/02/18 03:06:54;;;;;;;9.40;8.32;;;8.50;99.90;;;;;;5048928;28;20236;-62
2024/02/18 03:09:21;;;;;;;8.73;7.97;;;8.50;99.90;;;;;;5067499;28;20237;-62
2024/02/18 03:11:48;;;;;;;10.13;7.93;;;8.50;99.90;;;;;;5067507;28;20316;-62
2024/02/18 03:14:15;;;;;;;10.57;9.15;;;8.50;99.90;;;;;;5067434;28;20264;-62
2024/02/18 03:16:43;;;;;;;9.20;8.25;;;8.50;99.90;;;;;;5042244;28;20297;-62
2024/02/18 03:19:10;;;;;;;8.70;7.90;;;8.50;99.90;;;;;;5063135;28;20676;-62
2024/02/18 03:21:39;;;;;;;12.45;8.52;;;8.50;99.90;;;;;;5067438;28;20253;-62
2024/02/18 03:24:06;;;;;;;9.73;8.83;;;8.40;99.90;;;;;;5047174;28;20638;-62
2024/02/18 03:26:34;;;;;;;9.40;8.57;;;8.40;99.90;;;;;;5053783;28;20534;-62
2024/02/18 03:29:02;;;;;;;9.65;8.80;;;8.40;99.90;;;;;;5067589;28;20234;-62
2024/02/18 03:31:29;;;;;;;10.40;8.40;;;8.50;99.90;;;;;;5069246;28;20240;-62
2024/02/18 03:33:56;;;;;;;9.15;8.30;;;8.50;99.90;;;;;;5045699;28;20952;-62
2024/02/18 03:36:23;;;;;;;11.67;8.47;;;8.40;99.90;;;;;;5058455;28;20210;-62
2024/02/18 03:38:51;;;;;;;10.30;9.23;;;8.40;99.90;;;;;;5071692;28;20531;-62
2024/02/18 03:41:18;;;;;;;9.73;8.83;;;8.40;99.90;;;;;;5071576;28;20840;-62
2024/02/18 03:43:45;;;;;;;9.80;8.90;;;8.40;99.90;;;;;;5036166;28;20532;-62
2024/02/18 03:46:12;;;;;;;14.45;9.25;;;8.40;99.90;;;;;;5058298;28;20542;-62
2024/02/18 03:48:39;;;;;;;12.20;8.73;;;8.40;99.90;;;;;;5071382;28;20229;-62
2024/02/18 03:51:06;;;;;;;8.93;8.23;;;8.40;99.90;;;;;;5071066;28;20468;-62
2024/02/18 03:53:32;;;;;;;16.00;9.40;;;8.40;99.90;;;;;;5065991;28;20484;-62
2024/02/18 03:56:01;;;;;;;12.45;10.43;;;8.40;99.90;;;;;;5045814;28;20207;-62
2024/02/18 03:58:27;;;;;;;15.27;8.73;;;8.40;99.90;;;;;;5042370;28;20198;-62
2024/02/18 04:00:54;;;;;;;11.17;9.57;;;8.40;99.90;;;;;;5032317;28;20227;-62
2024/02/18 04:03:21;;;;;;;11.85;10.57;;;8.40;99.90;;;;;;5071110;28;20454;-62
2024/02/18 04:05:48;;;;;;;10.90;9.85;;;8.40;99.90;;;;;;5070903;28;20225;-62
2024/02/18 04:08:15;;;;;;;10.90;9.80;;;8.40;99.90;;;;;;5071268;28;20311;-62
2024/02/18 04:10:41;;;;;;;9.50;8.60;;;8.40;99.90;;;;;;5070639;28;20491;-62
2024/02/18 04:13:10;;;;;;;9.88;8.95;;;8.40;99.90;;;;;;5070716;28;20205;-62
2024/02/18 04:15:37;;;;;;;11.23;10.13;;;8.40;99.90;;;;;;5071071;28;20688;-62
2024/02/18 04:18:04;;;;;;;13.82;10.60;;;8.40;99.90;;;;;;5057567;28;20477;-62
2024/02/18 04:20:31;;;;;;;9.83;8.47;;;8.40;99.90;;;;;;5044318;28;20237;-62
2024/02/18 04:22:57;;;;;;;10.52;9.52;;;8.40;99.90;;;;;;5059187;28;20460;-62
2024/02/18 04:25:25;;;;;;;10.60;9.03;;;8.40;99.90;;;;;;5047443;28;20215;-62
2024/02/18 04:27:51;;;;;;;9.77;8.90;;;8.40;99.90;;;;;;5071028;28;20582;-62
2024/02/18 04:30:19;;;;;;;10.13;8.93;;;8.40;99.90;;;;;;5052161;28;20226;-62
2024/02/18 04:32:46;;;;;;;11.43;10.02;;;8.40;99.90;;;;;;5046711;28;20459;-62
2024/02/18 04:35:13;;;;;;;13.70;9.10;;;8.30;99.90;;;;;;5051106;28;20594;-62
2024/02/18 04:37:40;;;;;;;9.60;8.20;;;8.30;99.90;;;;;;5051326;28;20220;-62
2024/02/18 04:40:08;;;;;;;9.77;8.75;;;8.30;99.90;;;;;;5072651;22;20567;-59
2024/02/18 04:42:35;;;;;;;9.57;8.68;;;8.30;99.90;;;;;;5050505;28;20210;-60
2024/02/18 04:45:02;;;;;;;9.40;8.40;;;8.30;99.90;;;;;;5050587;28;20891;-61
2024/02/18 04:47:31;;;;;;;9.82;8.15;;;8.30;99.90;;;;;;5050996;28;20497;-59
2024/02/18 04:49:58;;;;;;;11.20;8.90;;;8.30;99.90;;;;;;5050595;28;20215;-61
2024/02/18 04:52:25;;;;;;;11.38;8.63;;;8.30;99.90;;;;;;5050344;28;20560;-61
2024/02/18 04:54:51;;;;;;;11.90;9.45;;;8.30;99.90;;;;;;5050997;28;20217;-61
2024/02/18 04:57:18;;;;;;;11.18;9.30;;;8.20;99.90;;;;;;5050616;28;20594;-60
2024/02/18 04:59:45;;;;;;;9.75;8.85;;;8.30;99.90;;;;;;5049429;28;20228;-60
2024/02/18 05:02:12;;;;;;;9.32;8.52;;;8.30;99.90;;;;;;5050024;28;20207;-61
2024/02/18 05:04:40;;;;;;;12.15;8.93;;;8.30;99.90;;;;;;5050680;28;20210;-60
2024/02/18 05:07:07;;;;;;;9.90;8.20;;;8.20;99.90;;;;;;5050709;28;20685;-60
2024/02/18 05:09:34;;;;;;;9.07;5.57;;;8.20;99.90;;;;;;5050315;28;20202;-61
2024/02/18 05:12:01;;;;;;;7.93;7.15;;;8.20;99.90;;;;;;5049979;28;20266;-60
2024/02/18 05:14:29;;;;;;;9.88;7.47;;;8.20;99.90;;;;;;5050918;28;20209;-60
2024/02/18 05:16:57;;;;;;;9.80;8.38;;;8.20;99.90;;;;;;5050490;28;20216;-61
2024/02/18 05:19:24;;;;;;;7.72;7.00;;;8.20;99.90;;;;;;5050412;28;20229;-61
2024/02/18 05:21:53;;;;;;;8.98;7.78;;;8.20;99.90;;;;;;5049813;28;20283;-57
2024/02/18 05:24:20;;;;;;;9.13;8.20;;;8.10;99.90;;;;;;5050244;28;20595;-62
2024/02/18 05:26:46;;;;;;;8.98;8.05;;;8.10;99.90;;;;;;5050362;28;20206;-61
2024/02/18 05:29:13;;;;;;;9.57;8.57;;;8.00;99.90;;;;;;5050081;28;20325;-61
2024/02/18 05:31:40;;;;;;;8.27;7.47;;;8.00;99.90;;;;;;5047139;28;20838;-61
2024/02/18 05:34:07;;;;;;;7.88;7.05;;;7.90;99.90;;;;;;5047885;28;21022;-58
2024/02/18 05:36:34;;;;;;;9.00;8.20;;;7.80;99.90;;;;;;5048645;28;20984;-61
2024/02/18 05:39:02;;;;;;;9.50;8.60;;;7.80;99.90;;;;;;5049726;28;20213;-60
2024/02/18 05:41:29;;;;;;;10.90;8.63;;;7.70;99.90;;;;;;5049312;28;20242;-59
2024/02/18 05:43:56;;;;;;;9.75;8.60;;;7.60;99.90;;;;;;5050178;28;20210;-58
2024/02/18 05:46:23;;;;;;;9.20;7.80;;;7.50;99.90;;;;;;5050204;28;20703;-60
2024/02/18 05:48:50;;;;;;;11.30;8.73;;;7.50;99.90;;;;;;5049870;28;20234;-60
2024/02/18 05:51:17;;;;;;;11.63;9.20;;;7.40;99.90;;;;;;5049972;28;21020;-60
2024/02/18 05:53:44;;;;;;;11.50;8.68;;;7.30;99.90;;;;;;5048179;28;20590;-62
2024/02/18 05:56:12;;;;;;;15.88;9.25;;;7.20;99.90;;;;;;5049697;28;20563;-61
2024/02/18 05:58:40;;;;;;;10.95;9.75;;;7.20;99.90;;;;;;5049259;28;20209;-61
2024/02/18 06:01:07;;;;;;;10.13;9.00;;;7.10;99.90;;;;;;5049568;28;20888;-58
2024/02/18 06:03:33;;;;;;;12.05;9.55;;;7.00;99.90;;;;;;5049029;28;20220;-60
2024/02/18 06:06:00;;;;;;;12.57;9.35;;;7.00;99.90;;;;;;5049554;28;20216;-56
2024/02/18 06:08:27;;;;;;;10.73;9.63;;;6.90;99.90;;;;;;5049238;28;20236;-57
2024/02/18 06:10:54;;;;;;;9.77;8.77;;;6.90;99.90;;;;;;5048748;28;20226;-61
2024/02/18 06:13:22;;;;;;;9.85;8.60;;;6.80;99.90;;;;;;5048082;28;20734;-61
2024/02/18 06:15:50;;;;;;;11.02;9.75;;;6.80;99.90;;;;;;5048949;28;20220;-58
2024/02/18 06:18:17;;;;;;;11.50;10.40;;;6.70;99.90;;;;;;5049497;28;20238;-57
2024/02/18 06:20:45;;;;;;;13.88;10.80;;;6.70;99.90;;;;;;5048955;28;20232;-61
2024/02/18 06:23:11;;;;;;;11.05;10.00;;;6.60;99.90;;;;;;5048798;28;20206;-60
2024/02/18 06:25:38;;;;;;;11.40;10.10;;;6.60;99.90;;;;;;5048990;28;20216;-59
2024/02/18 06:28:08;;;;;;;12.40;11.18;;;6.60;99.90;;;;;;5048638;28;20993;-59
2024/02/18 06:30:38;;;;;;;11.00;9.80;;;6.60;99.90;;;;;;5048823;28;20237;-58
2024/02/18 06:33:06;;;;;;;11.32;9.55;;;6.60;99.90;;;;;;5048479;28;20603;-60
2024/02/18 06:35:33;;;;;;;13.35;10.82;;;6.50;99.90;;;;;;5048878;28;20686;-60
2024/02/18 06:38:00;;;;;;;12.40;10.35;;;6.50;99.90;;;;;;5048947;28;20210;-57
2024/02/18 06:40:27;;;;;;;11.15;10.05;;;6.40;99.90;;;;;;5048529;28;20244;-58
2024/02/18 06:42:54;;;;;;;11.88;9.95;;;6.40;99.90;;;;;;5048383;28;20242;-58
2024/02/18 06:45:21;;;;;;;12.07;10.88;;;6.40;99.90;;;;;;5048760;28;20301;-59
2024/02/18 06:47:49;;;;;;;10.20;9.10;;;6.40;99.90;;;;;;5048676;28;20217;-57
2024/02/18 06:50:16;;;;;;;10.15;9.25;;;6.40;99.90;;;;;;5048406;28;20242;-61
2024/02/18 06:52:42;;;;;;;9.95;8.95;;;6.30;99.90;;;;;;5048224;28;20224;-60
2024/02/18 06:55:10;;;;;;;10.20;9.30;;;6.30;99.90;;;;;;5048902;28;20218;-59
2024/02/18 06:57:37;;;;;;;16.10;10.90;;;6.30;99.90;;;;;;5048923;28;20218;-57
2024/02/18 07:00:08;;;;;;;12.90;11.60;;;6.20;99.90;;;;;;5048313;28;20210;-59
2024/02/18 07:02:35;;;;;;;12.45;11.25;;;6.30;99.90;;;;;;5048179;28;20224;-58
2024/02/18 07:05:03;;;;;;;15.30;11.27;;;6.20;99.90;;;;;;5048426;28;20329;-60
2024/02/18 07:07:30;;;;;;;14.20;11.60;;;6.20;99.90;;;;;;5048541;28;20220;-60
2024/02/18 07:09:57;;;;;;;12.85;11.05;;;6.20;99.90;;;;;;5048371;28;20257;-59
2024/02/18 07:12:24;;;;;;;12.13;10.52;;;6.10;99.90;;;;;;5048105;28;20214;-60
2024/02/18 07:14:50;;;;;;;12.43;9.98;;;6.10;99.90;;;;;;5048526;28;20214;-58
2024/02/18 07:17:19;;;;;;;11.77;10.57;;;6.10;99.90;;;;;;5048428;28;20210;-59
2024/02/18 07:19:46;;;;;;;12.15;10.23;;;6.10;99.90;;;;;;5048152;28;20206;-57
2024/02/18 07:22:15;;;;;;;11.80;9.25;;;6.10;99.90;;;;;;5048071;28;20229;-60
2024/02/18 07:24:42;;;;;;;13.85;9.18;;;6.10;99.90;;;;;;5048576;28;20214;-61
2024/02/18 07:27:09;;;;;;;10.30;9.30;;;6.10;99.90;;;;;;5048718;28;20601;-60
2024/02/18 07:29:36;;;;;;;12.18;9.05;;;6.10;99.90;;;;;;5048147;28;20234;-60
2024/02/18 07:32:03;;;;;;;12.57;9.90;;;6.10;99.90;;;;;;5048000;28;20265;-60
2024/02/18 07:34:29;;;;;;;11.20;8.57;;;6.10;99.90;;;;;;5048223;28;20254;-58
2024/02/18 07:36:56;;;;;;;12.70;10.57;;;6.10;99.90;;;;;;5048395;28;20212;-56
2024/02/18 07:39:26;;;;;;;12.43;10.20;;;6.10;99.90;;;;;;5048042;28;20293;-61
2024/02/18 07:41:54;;;;;;;11.57;9.07;;;6.10;99.90;;;;;;5047631;28;20242;-60
2024/02/18 07:44:21;;;;;;;10.35;9.10;;;6.10;99.90;;;;;;5048435;28;20316;-61
2024/02/18 07:46:48;;;;;;;11.63;10.38;;;6.10;99.90;;;;;;5048180;28;20216;-60
2024/02/18 07:49:15;;;;;;;11.85;10.68;;;6.10;99.90;;;;;;5047881;28;20229;-56
2024/02/18 07:51:42;;;;;;;10.25;8.85;;;6.20;99.90;;;;;;5047692;28;20230;-60
2024/02/18 07:54:09;;;;;;;12.50;11.27;;;6.20;99.90;;;;;;5048288;28;20210;-60
2024/02/18 07:56:44;;;;;;;12.30;10.15;;;6.20;99.90;;;;;;5048214;28;20664;-60
2024/02/18 07:59:11;;;;;;;11.82;10.18;;;6.30;99.90;;;;;;5048488;28;20253;-57
2024/02/18 08:01:38;;;;;;;13.93;9.10;;;6.30;99.90;;;;;;5047630;28;20241;-57
2024/02/18 08:04:05;;;;;;;14.57;9.90;;;6.40;99.90;;;;;;5048292;28;20217;-61
2024/02/18 08:06:32;;;;;;;12.07;9.93;;;6.40;99.90;;;;;;5048293;28;20708;-59
2024/02/18 08:08:59;;;;;;;11.30;9.55;;;6.50;99.90;;;;;;5047815;28;20713;-58
2024/02/18 08:11:26;;;;;;;12.85;11.18;;;6.50;99.90;;;;;;5047849;28;20321;-61
2024/02/18 08:13:54;;;;;;;9.02;7.75;;;6.60;99.90;;;;;;5047990;28;20747;-60
2024/02/18 08:16:21;;;;;;;11.90;9.85;;;6.60;99.90;;;;;;5048004;28;20217;-61
2024/02/18 08:18:48;;;;;;;10.45;9.40;;;6.70;99.90;;;;;;5050344;28;20198;-59
2024/02/18 08:21:15;;;;;;;9.70;8.40;;;6.70;99.90;;;;;;5051010;28;20609;-60
2024/02/18 08:23:41;;;;;;;11.70;9.45;;;6.80;99.90;;;;;;5050992;28;20218;-60
2024/02/18 08:26:08;;;;;;;11.70;10.52;;;6.90;99.90;;;;;;5051739;28;20210;-60
2024/02/18 08:28:35;;;;;;;10.60;9.07;;;6.90;99.90;;;;;;5051209;28;20727;-61
2024/02/18 08:31:03;;;;;;;11.23;9.70;;;7.00;99.90;;;;;;5051643;28;20317;-61
2024/02/18 08:33:31;;;;;;;15.80;13.05;;;7.10;99.90;;;;;;5050932;28;20701;-60
2024/02/18 08:35:57;;;;;;;13.48;10.45;;;7.20;99.90;;;;;;5051405;28;20309;-59
2024/02/18 08:38:24;;;;;;;11.13;9.98;;;7.20;99.90;;;;;;5051204;28;20215;-58
2024/02/18 08:40:51;;;;;;;11.18;9.07;;;7.30;99.90;;;;;;5050974;28;20248;-59
2024/02/18 08:43:18;;;;;;;12.73;10.63;;;7.40;99.90;;;;;;5050544;28;20216;-60
2024/02/18 08:45:45;;;;;;;13.43;10.52;;;7.50;99.90;;;;;;5051196;28;20211;-59
2024/02/18 08:48:13;;;;;;;14.55;9.93;;;7.60;99.90;;;;;;5050995;28;20209;-61
2024/02/18 08:50:40;;;;;;;10.60;9.63;;;7.60;99.90;;;;;;5050510;28;20234;-60
2024/02/18 08:53:08;;;;;;;13.20;10.90;;;7.70;99.90;;;;;;5050535;28;20222;-61
2024/02/18 08:55:36;;;;;;;14.10;11.27;;;7.80;99.90;;;;;;5050826;28;20210;-60
2024/02/18 08:58:04;;;;;;;12.65;11.38;;;7.90;99.90;;;;;;5051022;28;20220;-61
2024/02/18 09:00:30;;;;;;;12.40;10.23;;;8.00;99.90;;;;;;5050680;28;20619;-61
2024/02/18 09:02:57;;;;;;;11.27;10.27;;;8.10;99.90;;;;;;5049955;28;20305;-61
2024/02/18 09:05:25;;;;;;;13.90;11.35;;;8.20;99.90;;;;;;5050644;28;20216;-61
2024/02/18 09:07:52;;;;;;;12.80;11.00;;;8.30;99.90;;;;;;5050951;28;20299;-60
2024/02/18 09:10:19;;;;;;;16.90;12.87;;;8.50;99.90;;;;;;5050494;28;20337;-59
2024/02/18 09:12:46;;;;;;;16.40;12.20;;;8.60;99.90;;;;;;5050133;28;20551;-61
2024/02/18 09:15:13;;;;;;;11.17;10.07;;;8.70;99.90;;;;;;5050597;28;21132;-59
2024/02/18 09:17:40;;;;;;;13.70;12.35;;;8.90;99.90;;;;;;5046914;28;20472;-60
2024/02/18 09:20:08;;;;;;;13.10;11.70;;;9.00;99.90;;;;;;5042777;28;20227;-60
2024/02/18 09:22:36;;;;;;;15.60;12.17;;;9.20;99.90;;;;;;5049505;28;20475;-61
2024/02/18 09:25:03;;;;;;;18.73;12.00;;;9.30;99.90;;;;;;5049788;28;20445;-60
2024/02/18 09:27:30;;;;;;;13.67;12.03;;;9.50;99.90;;;;;;5039832;28;20481;-61
2024/02/18 09:29:57;;;;;;;12.90;11.27;;;9.70;99.90;;;;;;5037974;28;20491;-61
2024/02/18 09:32:23;;;;;;;16.07;12.20;;;9.90;99.90;;;;;;5049288;28;20455;-61
2024/02/18 09:34:50;;;;;;;12.57;11.30;;;10.10;99.90;;;;;;5045772;28;20541;-60
2024/02/18 09:37:17;;;;;;;14.07;11.90;;;10.30;99.90;;;;;;5035204;28;20464;-61
2024/02/18 09:39:45;;;;;;;17.30;15.50;;;10.40;99.90;;;;;;5048735;28;20855;-60
2024/02/18 09:42:13;;;;;;;13.83;12.00;;;10.60;99.90;;;;;;5035601;28;20484;-62
2024/02/18 09:44:42;;;;;;;11.83;10.50;;;10.80;99.90;;;;;;5046734;28;20986;-61
2024/02/18 09:47:12;;;;;;;15.93;13.13;;;11.00;99.90;;;;;;5031457;28;20461;-61
2024/02/18 09:49:40;;;;;;;14.07;12.60;;;11.20;99.90;;;;;;5045665;28;20503;-62
2024/02/18 09:52:07;;;;;;;13.00;11.30;;;11.40;99.90;;;;;;5039209;28;21159;-60
2024/02/18 09:54:35;;;;;;;15.67;11.13;;;11.60;99.90;;;;;;5035057;28;20458;-61
2024/02/18 09:57:05;;;;;;;13.63;12.23;;;11.70;99.90;;;;;;5049255;28;20461;-61
2024/02/18 09:59:32;;;;;;;17.83;11.37;;;11.80;99.90;;;;;;5049098;28;20464;-61
2024/02/18 10:02:00;;;;;;;13.03;10.73;;;12.00;99.90;;;;;;5048838;28;20472;-61
2024/02/18 10:04:27;;;;;;;12.90;10.70;;;12.20;99.90;;;;;;5049232;28;20477;-61
2024/02/18 10:06:54;;;;;;;13.80;11.07;;;12.30;99.90;;;;;;5045198;28;20445;-62
2024/02/18 10:09:21;;;;;;;10.23;9.20;;;12.40;99.90;;;;;;5039378;28;20544;-61
2024/02/18 10:11:48;;;;;;;13.40;12.00;;;12.50;99.90;;;;;;5048514;28;20481;-59
2024/02/18 10:14:23;;;;;;;10.97;9.77;;;12.50;99.90;;;;;;5048281;28;20572;-61
2024/02/18 10:16:50;;;;;;;10.33;8.73;;;12.60;99.90;;;;;;5049034;28;20482;-60
2024/02/18 10:19:17;;;;;;;10.73;8.03;;;12.60;99.90;;;;;;5048800;28;20463;-61
2024/02/18 10:21:44;;;;;;;10.87;9.20;;;12.70;99.90;;;;;;5048025;28;21042;-62
2024/02/18 10:24:11;;;;;;;6.50;6.00;;;12.70;99.90;;;;;;5036191;28;20967;-61
2024/02/18 10:26:38;;;;;;;6.00;5.40;;;12.80;99.90;;;;;;5029870;28;20828;-61
2024/02/18 10:29:06;;;;;;;8.17;6.33;;;12.90;99.90;;;;;;5037915;28;20456;-62
2024/02/18 10:31:34;;;;;;;6.30;5.70;;;12.90;99.90;;;;;;5027989;28;20465;-62
2024/02/18 10:34:01;;;;;;;6.80;6.10;;;13.00;99.90;;;;;;5036293;28;20441;-61
2024/02/18 10:36:32;;;;;;;6.43;5.60;;;13.00;99.90;;;;;;5031620;28;20981;-61
2024/02/18 10:39:03;;;;;;;6.67;5.67;;;13.00;99.90;;;;;;5032974;28;20453;-62
2024/02/18 10:41:35;;;;;;;7.50;6.73;;;13.00;99.90;;;;;;5067674;22;21011;-64
2024/02/18 10:44:07;;;;;;;7.60;7.00;;;13.10;99.90;;;;;;5048300;28;20540;-65
2024/02/18 10:46:37;;;;;;;6.83;6.13;;;13.10;99.90;;;;;;5047768;28;20532;-64
2024/02/18 10:49:11;;;;;;;6.50;5.70;;;13.20;99.90;;;;;;5047942;28;20449;-65
2024/02/18 10:51:40;;;;;;;7.63;6.83;;;13.20;99.90;;;;;;5032401;28;20982;-65
2024/02/18 10:54:16;;;;;;;7.77;7.07;;;13.20;99.90;;;;;;5036432;28;20541;-65
2024/02/18 10:56:43;;;;;;;8.03;7.33;;;13.10;99.90;;;;;;5047849;28;21025;-64
2024/02/18 10:59:17;;;;;;;8.13;7.43;;;13.10;99.90;;;;;;5034852;28;20490;-65
2024/02/18 11:01:51;;;;;;;9.13;8.23;;;13.00;99.90;;;;;;5038473;28;20552;-64
2024/02/18 11:04:19;;;;;;;8.23;7.30;;;13.00;99.90;;;;;;5047829;28;21051;-65
2024/02/18 11:06:46;;;;;;;8.03;7.33;;;13.00;99.90;;;;;;5047952;28;20457;-64
2024/02/18 11:09:14;;;;;;;8.03;7.10;;;13.00;99.90;;;;;;5042811;28;20961;-64
2024/02/18 11:11:43;;;;;;;8.20;7.27;;;13.10;99.90;;;;;;5029612;28;20486;-65
2024/02/18 11:14:10;;;;;;;9.00;8.10;;;13.10;99.90;;;;;;5037152;28;20445;-64
2024/02/18 11:16:38;;;;;;;8.50;7.07;;;13.10;99.90;;;;;;5033767;28;20454;-64
2024/02/18 11:19:08;;;;;;;8.43;7.63;;;13.10;99.90;;;;;;5032402;28;21030;-65
2024/02/18 11:21:35;;;;;;;8.23;7.53;;;13.10;99.90;;;;;;5039255;28;20464;-64
2024/02/18 11:24:02;;;;;;;8.67;7.67;;;13.10;99.90;;;;;;5026829;28;20456;-64
2024/02/18 11:26:29;;;;;;;7.80;6.97;;;13.00;99.90;;;;;;5030828;28;20561;-63
2024/02/18 11:29:01;;;;;;;9.30;6.20;;;13.00;99.90;;;;;;5030569;28;20444;-64
2024/02/18 11:31:30;;;;;;;7.77;6.77;;;12.90;99.90;;;;;;5040212;28;20493;-64
2024/02/18 11:33:56;;;;;;;5.67;5.03;;;12.90;99.90;;;;;;5029641;28;20840;-64
2024/02/18 11:36:26;;;;;;;5.63;5.13;;;12.90;99.90;;;;;;5032711;28;20796;-65
2024/02/18 11:38:56;;;;;;;6.90;6.30;;;12.90;99.90;;;;;;5042188;28;20457;-65
2024/02/18 11:41:26;;;;;;;6.10;5.33;;;12.90;99.90;;;;;;5035088;28;20469;-64
2024/02/18 11:43:54;;;;;;;6.10;5.60;;;12.80;99.90;;;;;;5035191;28;21032;-64
2024/02/18 11:46:23;;;;;;;6.93;5.90;;;12.70;99.90;;;;;;5030884;28;20444;-64
2024/02/18 11:48:50;;;;;;;6.03;5.53;;;12.60;99.90;;;;;;5035457;28;20454;-65
2024/02/18 11:51:17;;;;;;;6.70;6.10;;;12.60;99.90;;;;;;5034600;28;20515;-64
2024/02/18 11:53:45;;;;;;;7.43;6.67;;;12.60;99.90;;;;;;5033449;28;20456;-65
2024/02/18 11:56:13;;;;;;;6.67;6.17;;;12.60;99.90;;;;;;5036988;28;20476;-65
2024/02/18 11:58:40;;;;;;;7.77;7.17;;;12.70;99.90;;;;;;5045825;28;20536;-65
2024/02/18 12:01:07;;;;;;;8.37;7.57;;;12.70;99.90;;;;;;5046108;28;20479;-64
2024/02/18 12:03:34;;;;;;;8.63;7.83;;;12.80;99.90;;;;;;5040200;28;20446;-65
2024/02/18 12:06:02;;;;;;;7.97;7.27;;;12.80;99.90;;;;;;5050277;28;20449;-65
2024/02/18 12:08:30;;;;;;;7.77;7.07;;;12.80;99.90;;;;;;5050824;28;20639;-65
2024/02/18 12:10:59;;;;;;;7.03;6.40;;;12.80;99.90;;;;;;5050708;28;21438;-65
2024/02/18 12:13:27;;;;;;;9.47;8.57;;;12.80;99.90;;;;;;5041924;28;20450;-64
2024/02/18 12:15:54;;;;;;;8.27;7.57;;;12.80;99.90;;;;;;5042809;28;20453;-64
2024/02/18 12:18:20;;;;;;;9.30;7.97;;;12.90;99.90;;;;;;5045844;28;20481;-65
2024/02/18 12:20:49;;;;;;;8.43;7.73;;;12.90;99.90;;;;;;5043296;28;20472;-65
2024/02/18 12:23:16;;;;;;;8.00;7.30;;;13.00;99.90;;;;;;5031137;28;20457;-65
2024/02/18 12:25:43;;;;;;;9.67;8.67;;;13.00;99.90;;;;;;5033822;28;20449;-65
2024/02/18 12:28:12;;;;;;;8.27;7.60;;;13.10;99.90;;;;;;5040879;28;20453;-65
2024/02/18 12:30:39;;;;;;;8.50;7.90;;;13.10;99.90;;;;;;5037539;28;20558;-64
2024/02/18 12:33:06;;;;;;;9.20;8.33;;;13.10;99.90;;;;;;5041395;28;20534;-64
2024/02/18 12:35:34;;;;;;;10.07;8.70;;;13.20;99.90;;;;;;5046180;28;20455;-65
2024/02/18 12:38:02;;;;;;;11.53;8.90;;;13.20;99.90;;;;;;5045831;28;20529;-65
2024/02/18 12:40:29;;;;;;;10.23;9.23;;;13.20;99.90;;;;;;5045903;28;20473;-65
2024/02/18 12:42:57;;;;;;;11.10;10.03;;;13.20;99.90;;;;;;5049690;28;20476;-65
2024/02/18 12:45:26;;;;;;;11.10;10.10;;;13.20;99.90;;;;;;5050168;28;20448;-64
2024/02/18 12:47:55;;;;;;;10.53;9.40;;;13.20;99.90;;;;;;5042526;28;20450;-64